Grady, Oklahoma
Current Conditions -  °F | °C
As of 3:55 AM on Monday 22 Dec 2014 (Local Time) from K0F2 Reporting Station
Clear Clear  
Wind Chill: 43°   Ceiling: Unl
Heat Index: 47°   Visibility: 10mi
Dew Point: 45°   Wind: 8mph
Humidity: 95%   Direction: 160°SSE
Pressure: 29.56"   Gusts: NA
Location:  33.908°N, 97.9293°W
Report Text: K0F2 220955Z AUTO 16007KT 10SM CLR 08/07 A2956 RMK AO2 T00810074
Loading
Personal Weather Stations






























Interactive Weather Map New forecast layout! Learn more

10-Day Weather Forecast

Advertisements
Track Severe Weather on mobile